Snow/Ice From: 16-12-2017 16:00 Until: 17-12-2017 16:00 warning for: Snow/Ice Level: Yellow info button

Although rather usual in this region, locally or potentially dangerous phenomena are expected. (such as local winds, summer thunderstorms, rising streams or high waves) Be aware and pay attention to the latest weather updates, especially if you carry out activities exposed to weather or close to a stream or shoreline. 


Meteo18 Weather Cam more information Meteo18 Weather Cam


Thunder radar more information blitzortung!


warning for Snow/Ice more information rain snow radar


Visit our other weather sites:

Template documentation
and downloads

And another site



Weather Underground History page Text

Daily Summary for September 27, 2016 Units:  Metric    English   Both
« Previous Day
Next Day »
Daily Weekly Monthly Yearly Custom
  High: Low: Average:
Temperature: 22.0 °C 8.4 °C 15 °C
Dew Point: 9.9 °C 6.2 °C 7.7 °C
Humidity: 90 % 37 % 65 %
Wind Speed: 11.3 km/h 0.0 km/h 1.3 km/h
Wind Gust: 14.5 km/h - -
Wind:- - SE
Pressure: 1027.7 hPa 1022.9 hPa -
Precipitation: 0.0 mm    
Historical Graphs
 
 
Tabular Data for September 27, 2016
Time Temperature Dew Point Pressure Wind Wind Speed Wind Gust Humidity Rainfall Rate (Hourly)
00:02 12.2 °C 8.1 °C 1023.2 hPa Calm   3.2 km/h 76 % 0.0 mm
00:12 12.8 °C 8.3 °C 1022.9 hPa Calm   3.2 km/h 74 % 0.0 mm
00:17 12.7 °C 8.0 °C 1023.2 hPa Calm   1.6 km/h 73 % 0.0 mm
00:22 12.5 °C 8.0 °C 1023.2 hPa Calm   1.6 km/h 74 % 0.0 mm
00:27 12.4 °C 8.1 °C 1023.2 hPa Calm   1.6 km/h 75 % 0.0 mm
00:32 12.4 °C 8.1 °C 1022.9 hPa Calm   1.6 km/h 75 % 0.0 mm
00:37 12.6 °C 8.3 °C 1023.2 hPa Calm   1.6 km/h 75 % 0.0 mm
00:42 12.5 °C 8.2 °C 1023.2 hPa Calm   1.6 km/h 75 % 0.0 mm
00:52 12.3 °C 8.0 °C 1023.2 hPa Calm   1.6 km/h 75 % 0.0 mm
00:57 12.1 °C 8.2 °C 1023.2 hPa WNW 1.6 km/h 1.6 km/h 77 % 0.0 mm
01:02 12.1 °C 8.2 °C 1022.9 hPa Calm   1.6 km/h 77 % 0.0 mm
01:07 12.5 °C 8.2 °C 1022.9 hPa Calm   3.2 km/h 75 % 0.0 mm
01:12 12.1 °C 8.0 °C 1022.9 hPa WNW 1.6 km/h 3.2 km/h 76 % 0.0 mm
01:17 11.8 °C 8.1 °C 1022.9 hPa WNW 1.6 km/h 3.2 km/h 78 % 0.0 mm
01:22 11.6 °C 7.9 °C 1022.9 hPa WNW 1.6 km/h 3.2 km/h 78 % 0.0 mm
01:32 11.4 °C 8.1 °C 1022.9 hPa Calm   3.2 km/h 80 % 0.0 mm
01:37 11.8 °C 8.3 °C 1022.9 hPa NW 1.6 km/h 1.6 km/h 79 % 0.0 mm
01:42 12.2 °C 8.3 °C 1022.9 hPa Calm   1.6 km/h 77 % 0.0 mm
01:47 12.3 °C 8.2 °C 1022.9 hPa Calm   1.6 km/h 76 % 0.0 mm
01:57 11.6 °C 8.1 °C 1022.9 hPa Calm   1.6 km/h 79 % 0.0 mm
02:07 11.4 °C 8.1 °C 1023.2 hPa Calm   1.6 km/h 80 % 0.0 mm
02:12 11.4 °C 8.1 °C 1022.9 hPa Calm   1.6 km/h 80 % 0.0 mm
02:17 11.4 °C 8.1 °C 1023.2 hPa Calm   1.6 km/h 80 % 0.0 mm
02:22 11.6 °C 8.3 °C 1023.2 hPa Calm   1.6 km/h 80 % 0.0 mm
02:32 11.8 °C 8.1 °C 1023.2 hPa Calm   1.6 km/h 78 % 0.0 mm
02:37 11.8 °C 8.1 °C 1023.2 hPa North 1.6 km/h 3.2 km/h 78 % 0.0 mm
02:42 11.7 °C 8.0 °C 1023.2 hPa Calm   3.2 km/h 78 % 0.0 mm
02:52 11.4 °C 8.3 °C 1023.2 hPa Calm   3.2 km/h 81 % 0.0 mm
03:02 11.6 °C 8.3 °C 1023.2 hPa Calm   3.2 km/h 80 % 0.0 mm
03:07 11.4 °C 8.1 °C 1023.2 hPa Calm   1.6 km/h 80 % 0.0 mm
03:12 11.4 °C 7.9 °C 1023.2 hPa Calm   1.6 km/h 79 % 0.0 mm
03:17 11.3 °C 8.0 °C 1023.2 hPa Calm     80 % 0.0 mm
03:22 11.2 °C 8.1 °C 1023.2 hPa North 1.6 km/h   81 % 0.0 mm
03:27 11.2 °C 8.1 °C 1023.2 hPa Calm   1.6 km/h 81 % 0.0 mm
03:32 11.1 °C 8.0 °C 1023.2 hPa Calm   1.6 km/h 81 % 0.0 mm
03:37 10.7 °C 7.6 °C 1023.2 hPa Calm   1.6 km/h 81 % 0.0 mm
03:42 10.7 °C 7.9 °C 1023.2 hPa Calm   1.6 km/h 83 % 0.0 mm
03:47 10.6 °C 7.8 °C 1023.2 hPa Calm   1.6 km/h 83 % 0.0 mm
03:52 10.6 °C 7.7 °C 1023.2 hPa Calm   1.6 km/h 82 % 0.0 mm
03:57 10.2 °C 7.4 °C 1023.2 hPa WNW 1.6 km/h 1.6 km/h 83 % 0.0 mm
04:02 10.0 °C 7.4 °C 1023.2 hPa Calm   1.6 km/h 84 % 0.0 mm
04:12 10.1 °C 7.7 °C 1023.2 hPa North 1.6 km/h 1.6 km/h 85 % 0.0 mm
04:17 10.1 °C 7.7 °C 1023.2 hPa NE 1.6 km/h 3.2 km/h 85 % 0.0 mm
04:22 10.1 °C 7.7 °C 1023.2 hPa Calm   3.2 km/h 85 % 0.0 mm
04:27 10.1 °C 7.5 °C 1023.2 hPa Calm   3.2 km/h 84 % 0.0 mm
04:32 9.7 °C 7.1 °C 1023.6 hPa WNW 1.6 km/h 3.2 km/h 84 % 0.0 mm
04:37 9.3 °C 7.2 °C 1023.6 hPa WNW 1.6 km/h 3.2 km/h 87 % 0.0 mm
04:42 9.3 °C 7.2 °C 1023.6 hPa WNW 1.6 km/h 3.2 km/h 87 % 0.0 mm
04:47 9.2 °C 7.3 °C 1023.6 hPa Calm   3.2 km/h 88 % 0.0 mm
04:52 9.3 °C 7.4 °C 1023.6 hPa Calm   3.2 km/h 88 % 0.0 mm
05:02 9.3 °C 7.2 °C 1023.2 hPa Calm   1.6 km/h 87 % 0.0 mm
05:12 8.9 °C 7.0 °C 1023.2 hPa WNW 1.6 km/h 1.6 km/h 88 % 0.0 mm
05:22 8.8 °C 7.1 °C 1023.2 hPa Calm   1.6 km/h 89 % 0.0 mm
05:32 8.7 °C 7.0 °C 1023.6 hPa Calm   1.6 km/h 89 % 0.0 mm
05:42 8.5 °C 6.8 °C 1023.6 hPa Calm     89 % 0.0 mm
05:47 8.4 °C 6.9 °C 1023.6 hPa Calm   1.6 km/h 90 % 0.0 mm
05:52 8.6 °C 7.1 °C 1023.6 hPa Calm   1.6 km/h 90 % 0.0 mm
05:57 8.6 °C 7.1 °C 1023.9 hPa Calm     90 % 0.0 mm
06:02 8.7 °C 7.2 °C 1023.9 hPa Calm     90 % 0.0 mm
06:12 8.6 °C 7.1 °C 1023.9 hPa Calm   1.6 km/h 90 % 0.0 mm
06:17 8.7 °C 7.2 °C 1023.9 hPa Calm     90 % 0.0 mm
06:22 8.8 °C 7.1 °C 1023.9 hPa North 1.6 km/h   89 % 0.0 mm
06:32 8.9 °C 7.0 °C 1023.9 hPa Calm   3.2 km/h 88 % 0.0 mm
06:42 9.2 °C 7.1 °C 1024.3 hPa Calm   3.2 km/h 87 % 0.0 mm
06:47 9.3 °C 7.2 °C 1024.3 hPa Calm   3.2 km/h 87 % 0.0 mm
06:57 9.7 °C 7.3 °C 1024.3 hPa Calm   1.6 km/h 85 % 0.0 mm
07:02 9.6 °C 7.2 °C 1024.3 hPa Calm     85 % 0.0 mm
07:12 9.4 °C 7.2 °C 1024.3 hPa Calm     86 % 0.0 mm
07:17 9.5 °C 7.3 °C 1024.3 hPa Calm     86 % 0.0 mm
07:22 9.5 °C 7.3 °C 1024.3 hPa Calm     86 % 0.0 mm
07:32 9.5 °C 7.3 °C 1024.3 hPa Calm     86 % 0.0 mm
07:42 9.3 °C 7.2 °C 1024.3 hPa Calm     87 % 0.0 mm
07:52 9.2 °C 7.3 °C 1024.6 hPa Calm     88 % 0.0 mm
08:02 9.2 °C 7.3 °C 1024.6 hPa Calm     88 % 0.0 mm
08:12 9.3 °C 7.4 °C 1024.6 hPa Calm     88 % 0.0 mm
08:17 9.4 °C 7.5 °C 1024.6 hPa Calm     88 % 0.0 mm
08:22 9.5 °C 7.6 °C 1024.9 hPa Calm     88 % 0.0 mm
08:32 9.4 °C 7.3 °C 1024.9 hPa Calm     87 % 0.0 mm
08:37 9.6 °C 7.5 °C 1024.9 hPa Calm     87 % 0.0 mm
08:42 9.8 °C 7.6 °C 1024.9 hPa Calm     86 % 0.0 mm
08:47 10.1 °C 7.9 °C 1024.9 hPa Calm     86 % 0.0 mm
08:52 10.4 °C 7.8 °C 1024.9 hPa Calm     84 % 0.0 mm
08:57 10.4 °C 7.8 °C 1024.9 hPa Calm     84 % 0.0 mm
09:02 10.3 °C 7.9 °C 1024.9 hPa Calm     85 % 0.0 mm
09:12 10.8 °C 8.6 °C 1024.9 hPa Calm     86 % 0.0 mm
09:17 11.3 °C 9.0 °C 1024.9 hPa Calm     86 % 0.0 mm
09:22 11.8 °C 9.0 °C 1025.3 hPa Calm     83 % 0.0 mm
09:32 11.6 °C 8.6 °C 1025.3 hPa Calm     82 % 0.0 mm
09:37 11.6 °C 8.8 °C 1025.3 hPa Calm   3.2 km/h 83 % 0.0 mm
09:42 11.9 °C 8.9 °C 1025.3 hPa Calm   3.2 km/h 82 % 0.0 mm
09:52 12.3 °C 9.1 °C 1025.6 hPa Calm   3.2 km/h 81 % 0.0 mm
10:02 12.7 °C 9.2 °C 1025.6 hPa Calm   3.2 km/h 79 % 0.0 mm
10:12 13.4 °C 9.4 °C 1025.6 hPa Calm   3.2 km/h 77 % 0.0 mm
10:17 13.8 °C 9.6 °C 1025.6 hPa Calm     76 % 0.0 mm
10:22 14.3 °C 9.7 °C 1026.0 hPa Calm     74 % 0.0 mm
10:32 14.4 °C 9.0 °C 1025.6 hPa Calm     70 % 0.0 mm
10:37 14.7 °C 9.3 °C 1026.0 hPa Calm   1.6 km/h 70 % 0.0 mm
10:42 14.8 °C 9.2 °C 1026.0 hPa Calm   1.6 km/h 69 % 0.0 mm
10:52 15.2 °C 9.3 °C 1026.0 hPa Calm   1.6 km/h 68 % 0.0 mm
10:57 15.4 °C 9.3 °C 1026.0 hPa Calm   3.2 km/h 67 % 0.0 mm
11:02 15.7 °C 9.4 °C 1026.0 hPa Calm   3.2 km/h 66 % 0.0 mm
11:12 16.2 °C 9.6 °C 1026.0 hPa Calm   4.8 km/h 65 % 0.0 mm
11:17 16.4 °C 9.6 °C 1026.0 hPa SSE 1.6 km/h 4.8 km/h 64 % 0.0 mm
11:22 16.7 °C 9.9 °C 1026.0 hPa Calm   4.8 km/h 64 % 0.0 mm
11:32 17.2 °C 9.6 °C 1026.0 hPa SSW 3.2 km/h 3.2 km/h 61 % 0.0 mm
11:42 17.8 °C 9.4 °C 1026.0 hPa Calm   3.2 km/h 58 % 0.0 mm
11:47 18.2 °C 9.8 °C 1026.0 hPa SSE 1.6 km/h 3.2 km/h 58 % 0.0 mm
11:52 18.6 °C 9.6 °C 1026.0 hPa Calm   3.2 km/h 56 % 0.0 mm
12:02 19.1 °C 9.0 °C 1026.0 hPa Calm   4.8 km/h 52 % 0.0 mm
12:12 18.8 °C 7.6 °C 1026.0 hPa ESE 1.6 km/h 4.8 km/h 48 % 0.0 mm
12:17 19.2 °C 8.2 °C 1026.0 hPa Calm   8.0 km/h 49 % 0.0 mm
12:22 19.6 °C 7.7 °C 1026.0 hPa NNE 1.6 km/h 8.0 km/h 46 % 0.0 mm
12:32 20.0 °C 7.7 °C 1026.0 hPa East 6.4 km/h 6.4 km/h 45 % 0.0 mm
12:37 19.4 °C 7.2 °C 1026.0 hPa ENE 4.8 km/h 4.8 km/h 45 % 0.0 mm
12:42 19.4 °C 6.8 °C 1026.0 hPa Calm   8.0 km/h 44 % 0.0 mm
12:52 19.8 °C 6.2 °C 1026.0 hPa ENE 9.7 km/h 9.7 km/h 41 % 0.0 mm
12:57 19.7 °C 6.8 °C 1026.3 hPa NE 4.8 km/h 11.3 km/h 43 % 0.0 mm
13:02 19.8 °C 6.9 °C 1026.3 hPa East 11.3 km/h 11.3 km/h 43 % 0.0 mm
13:12 19.9 °C 7.3 °C 1026.3 hPa Calm   12.9 km/h 44 % 0.0 mm
13:17 20.4 °C 7.1 °C 1026.3 hPa North 8.0 km/h 12.9 km/h 42 % 0.0 mm
13:22 20.4 °C 7.1 °C 1026.0 hPa Calm   12.9 km/h 42 % 0.0 mm
13:32 20.6 °C 7.9 °C 1026.0 hPa ENE 8.0 km/h 8.0 km/h 44 % 0.0 mm
13:37 20.2 °C 6.9 °C 1026.0 hPa ENE 9.7 km/h 12.9 km/h 42 % 0.0 mm
13:42 20.2 °C 7.6 °C 1026.0 hPa ENE 6.4 km/h 12.9 km/h 44 % 0.0 mm
13:47 20.4 °C 7.4 °C 1026.0 hPa Calm   12.9 km/h 43 % 0.0 mm
13:52 20.6 °C 7.6 °C 1026.0 hPa ENE 3.2 km/h 12.9 km/h 43 % 0.0 mm
14:02 20.6 °C 7.2 °C 1026.0 hPa North 3.2 km/h 9.7 km/h 42 % 0.0 mm
14:07 20.6 °C 6.9 °C 1025.6 hPa East 1.6 km/h 9.7 km/h 41 % 0.0 mm
14:12 20.8 °C 7.1 °C 1025.6 hPa Calm   9.7 km/h 41 % 0.0 mm
14:17 20.8 °C 7.1 °C 1025.6 hPa Calm   9.7 km/h 41 % 0.0 mm
14:22 20.9 °C 7.2 °C 1025.6 hPa Calm   9.7 km/h 41 % 0.0 mm
14:32 21.4 °C 6.9 °C 1025.6 hPa ENE 9.7 km/h 9.7 km/h 39 % 0.0 mm
14:42 21.1 °C 6.6 °C 1025.6 hPa NE 3.2 km/h 12.9 km/h 39 % 0.0 mm
14:47 20.9 °C 6.8 °C 1025.6 hPa ENE 6.4 km/h 12.9 km/h 40 % 0.0 mm
14:52 21.0 °C 6.9 °C 1025.6 hPa Calm   12.9 km/h 40 % 0.0 mm
14:57 21.4 °C 6.9 °C 1025.6 hPa NNE 8.0 km/h 11.3 km/h 39 % 0.0 mm
15:02 21.2 °C 6.7 °C 1025.6 hPa Calm   11.3 km/h 39 % 0.0 mm
15:12 21.2 °C 6.7 °C 1025.6 hPa SE 6.4 km/h 12.9 km/h 39 % 0.0 mm
15:17 21.1 °C 6.6 °C 1025.6 hPa Calm   12.9 km/h 39 % 0.0 mm
15:22 21.4 °C 6.9 °C 1025.6 hPa SE 4.8 km/h 12.9 km/h 39 % 0.0 mm
15:27 21.4 °C 6.9 °C 1025.3 hPa NE 8.0 km/h 9.7 km/h 39 % 0.0 mm
15:32 21.6 °C 6.7 °C 1025.6 hPa NNE 6.4 km/h 9.7 km/h 38 % 0.0 mm
15:42 21.4 °C 6.5 °C 1025.6 hPa ENE 1.6 km/h 14.5 km/h 38 % 0.0 mm
15:47 21.5 °C 7.0 °C 1025.6 hPa ENE 1.6 km/h 11.3 km/h 39 % 0.0 mm
15:52 21.7 °C 6.8 °C 1025.6 hPa NE 3.2 km/h 11.3 km/h 38 % 0.0 mm
15:57 21.7 °C 7.1 °C 1025.6 hPa NE 3.2 km/h 8.0 km/h 39 % 0.0 mm
16:02 21.7 °C 6.8 °C 1025.6 hPa NE 9.7 km/h 9.7 km/h 38 % 0.0 mm
16:12 21.7 °C 7.1 °C 1025.3 hPa ENE 4.8 km/h 12.9 km/h 39 % 0.0 mm
16:17 21.9 °C 6.9 °C 1025.3 hPa SE 1.6 km/h 12.9 km/h 38 % 0.0 mm
16:22 22.0 °C 7.0 °C 1025.3 hPa ENE 11.3 km/h 12.9 km/h 38 % 0.0 mm
16:27 21.8 °C 6.8 °C 1025.3 hPa NNE 8.0 km/h 12.9 km/h 38 % 0.0 mm
16:32 21.9 °C 6.5 °C 1025.3 hPa ENE 6.4 km/h 12.9 km/h 37 % 0.0 mm
16:42 21.8 °C 7.2 °C 1025.3 hPa ENE 3.2 km/h 12.9 km/h 39 % 0.0 mm
16:47 22.0 °C 7.0 °C 1025.3 hPa Calm   11.3 km/h 38 % 0.0 mm
16:52 22.0 °C 7.0 °C 1025.3 hPa ENE 4.8 km/h 11.3 km/h 38 % 0.0 mm
17:02 21.8 °C 6.8 °C 1025.6 hPa ENE 6.4 km/h 9.7 km/h 38 % 0.0 mm
17:07 21.7 °C 6.8 °C 1025.6 hPa ENE 4.8 km/h 11.3 km/h 38 % 0.0 mm
17:12 21.6 °C 7.1 °C 1025.6 hPa Calm   11.3 km/h 39 % 0.0 mm
17:17 21.8 °C 6.8 °C 1025.6 hPa Calm   12.9 km/h 38 % 0.0 mm
17:22 21.8 °C 6.8 °C 1025.6 hPa South 1.6 km/h 12.9 km/h 38 % 0.0 mm
17:32 21.6 °C 7.1 °C 1025.6 hPa East 3.2 km/h 6.4 km/h 39 % 0.0 mm
17:37 21.5 °C 7.3 °C 1025.6 hPa ENE 4.8 km/h 8.0 km/h 40 % 0.0 mm
17:42 21.4 °C 7.2 °C 1025.6 hPa NNE 1.6 km/h 8.0 km/h 40 % 0.0 mm
17:52 21.3 °C 7.2 °C 1025.6 hPa ENE 3.2 km/h 8.0 km/h 40 % 0.0 mm
17:57 21.3 °C 7.5 °C 1025.6 hPa ENE 3.2 km/h 11.3 km/h 41 % 0.0 mm
18:02 21.3 °C 7.2 °C 1025.6 hPa East 1.6 km/h 11.3 km/h 40 % 0.0 mm
18:17 21.2 °C 7.1 °C 1025.6 hPa ENE 3.2 km/h 8.0 km/h 40 % 0.0 mm
18:22 21.1 °C 7.3 °C 1025.6 hPa NE 1.6 km/h 6.4 km/h 41 % 0.0 mm
18:32 21.0 °C 7.2 °C 1026.0 hPa NE 1.6 km/h 6.4 km/h 41 % 0.0 mm
18:42 21.2 °C 7.8 °C 1026.0 hPa ENE 1.6 km/h 6.4 km/h 42 % 0.0 mm
18:52 21.0 °C 7.2 °C 1026.0 hPa NE 3.2 km/h 6.4 km/h 41 % 0.0 mm
18:57 20.8 °C 7.4 °C 1026.0 hPa Calm   6.4 km/h 42 % 0.0 mm
19:02 20.6 °C 7.2 °C 1026.3 hPa NE 3.2 km/h 6.4 km/h 42 % 0.0 mm
19:12 19.9 °C 7.3 °C 1026.3 hPa NE 3.2 km/h 4.8 km/h 44 % 0.0 mm
19:22 19.6 °C 7.7 °C 1026.3 hPa ENE 1.6 km/h 4.8 km/h 46 % 0.0 mm
19:32 19.1 °C 7.5 °C 1026.3 hPa ENE 1.6 km/h 4.8 km/h 47 % 0.0 mm
19:37 18.9 °C 7.3 °C 1026.3 hPa Calm   4.8 km/h 47 % 0.0 mm
19:42 18.6 °C 7.4 °C 1026.6 hPa Calm   4.8 km/h 48 % 0.0 mm
19:47 18.5 °C 7.6 °C 1026.3 hPa ENE 1.6 km/h 1.6 km/h 49 % 0.0 mm
19:52 18.4 °C 7.8 °C 1026.6 hPa NE 4.8 km/h 4.8 km/h 50 % 0.0 mm
19:57 18.4 °C 7.5 °C 1026.6 hPa NE 1.6 km/h 4.8 km/h 49 % 0.0 mm
20:02 18.4 °C 7.5 °C 1026.6 hPa Calm   4.8 km/h 49 % 0.0 mm
20:17 17.3 °C 7.3 °C 1026.6 hPa NNW 1.6 km/h 3.2 km/h 52 % 0.0 mm
20:22 16.9 °C 7.3 °C 1026.6 hPa NW 1.6 km/h 3.2 km/h 53 % 0.0 mm
20:32 16.6 °C 7.5 °C 1026.6 hPa Calm   3.2 km/h 55 % 0.0 mm
20:37 16.3 °C 7.5 °C 1027.0 hPa Calm   1.6 km/h 56 % 0.0 mm
20:42 15.9 °C 7.6 °C 1027.0 hPa Calm   1.6 km/h 58 % 0.0 mm
20:47 15.7 °C 7.7 °C 1027.0 hPa Calm   1.6 km/h 59 % 0.0 mm
20:52 15.4 °C 7.4 °C 1027.0 hPa Calm   1.6 km/h 59 % 0.0 mm
20:57 15.1 °C 7.9 °C 1027.0 hPa Calm   1.6 km/h 62 % 0.0 mm
21:02 14.9 °C 7.9 °C 1027.0 hPa Calm   1.6 km/h 63 % 0.0 mm
21:07 15.2 °C 7.7 °C 1027.0 hPa Calm     61 % 0.0 mm
21:17 15.4 °C 7.7 °C 1027.3 hPa Calm     60 % 0.0 mm
21:22 15.1 °C 7.4 °C 1027.3 hPa Calm     60 % 0.0 mm
21:27 14.8 °C 7.6 °C 1027.3 hPa Calm     62 % 0.0 mm
21:37 14.4 °C 7.4 °C 1027.3 hPa Calm     63 % 0.0 mm
21:42 14.4 °C 7.4 °C 1027.3 hPa Calm     63 % 0.0 mm
21:52 13.8 °C 7.8 °C 1027.3 hPa Calm     67 % 0.0 mm
21:57 13.6 °C 7.8 °C 1027.3 hPa Calm     68 % 0.0 mm
22:02 13.6 °C 7.8 °C 1027.3 hPa Calm     68 % 0.0 mm
22:12 13.6 °C 7.6 °C 1027.3 hPa Calm     67 % 0.0 mm
22:17 13.6 °C 7.4 °C 1027.3 hPa Calm     66 % 0.0 mm
22:22 13.7 °C 7.7 °C 1027.3 hPa Calm     67 % 0.0 mm
22:32 13.5 °C 7.7 °C 1027.3 hPa Calm   1.6 km/h 68 % 0.0 mm
22:37 13.4 °C 7.6 °C 1027.7 hPa Calm     68 % 0.0 mm
22:42 13.3 °C 7.7 °C 1027.7 hPa Calm     69 % 0.0 mm
22:47 13.1 °C 7.8 °C 1027.7 hPa Calm     70 % 0.0 mm
22:52 13.0 °C 7.4 °C 1027.7 hPa Calm     69 % 0.0 mm
22:57 13.2 °C 7.4 °C 1027.7 hPa Calm     68 % 0.0 mm
23:02 13.3 °C 7.5 °C 1027.7 hPa North 1.6 km/h   68 % 0.0 mm
23:12 13.1 °C 7.3 °C 1027.7 hPa Calm   1.6 km/h 68 % 0.0 mm
23:22 12.6 °C 7.5 °C 1027.7 hPa Calm   1.6 km/h 71 % 0.0 mm
23:32 12.3 °C 7.4 °C 1027.7 hPa Calm     72 % 0.0 mm
23:42 12.3 °C 7.6 °C 1027.7 hPa NW 1.6 km/h 1.6 km/h 73 % 0.0 mm
23:52 12.5 °C 7.6 °C 1027.7 hPa North 1.6 km/h 1.6 km/h 72 % 0.0 mm
23:57 12.5 °C 7.6 °C 1027.7 hPa Calm   1.6 km/h 72 % 0.0 mm
Meteo18
Compliments of Weather Underground - 4 mb

Script developed by  Jim McMurry - jmcmurry@mwt.net Adapted for the template by  Wim van der Kuil - Leuven-Template.eu

You find our weather info also at:

European Weather Network

Weather Underground

Equipment we use:

Weather-station
Davis Vue

Weather-program
Meteohub

Weather-server
Raspberry PI 2 B+

Provider
1 and 1

Davis Vue

Meteohub

Raspberry PI 2 B+

1 and 1